Time;durP1;ratioP1;P1;durP2;ratioP2;P2;SDS_P1;SDS_P2;PMS_P1;PMS_P2;Temp;Humidity;BMP_temperature;BMP_pressure;BME280_temperature;BME280_humidity;BME280_pressure;Samples;Min_cycle;Max_cycle;Signal;HPM_P1;HPM_P2
2024/04/18 18:42:48;;;;;;;472.10;78.07;;;11.30;52.70;;;;;;5513724;25;20429;-73
2024/04/18 18:45:16;;;;;;;485.40;95.70;;;11.20;52.60;;;;;;5502734;25;20092;-65
2024/04/18 18:47:48;;;;;;;593.42;130.38;;;11.20;52.60;;;;;;5494982;25;20017;-72
2024/04/18 18:50:22;;;;;;;473.75;77.68;;;11.20;52.60;;;;;;5523897;25;20039;-70
2024/04/18 18:52:51;;;;;;;476.23;83.03;;;11.20;52.50;;;;;;5508206;25;20009;-67
2024/04/18 18:55:36;;;;;;;514.88;88.93;;;11.30;52.50;;;;;;5496029;25;20077;-69
2024/04/18 18:58:08;;;;;;;496.77;97.88;;;11.30;52.60;;;;;;5495109;25;19998;-68
2024/04/18 19:00:40;;;;;;;485.23;82.43;;;11.20;52.80;;;;;;5500474;25;20001;-70
2024/04/18 19:03:09;;;;;;;485.00;80.72;;;11.10;53.70;;;;;;5506892;25;20008;-68
2024/04/18 19:05:49;;;;;;;473.60;90.63;;;11.00;54.30;;;;;;5498902;25;20009;-65
2024/04/18 19:08:19;;;;;;;533.92;99.60;;;11.00;54.80;;;;;;5501395;25;20045;-66
2024/04/18 19:10:56;;;;;;;487.23;80.40;;;10.90;55.10;;;;;;5496711;25;20470;-70
2024/04/18 19:13:28;;;;;;;479.58;91.45;;;10.90;55.30;;;;;;5506832;25;20012;-65
2024/04/18 19:16:02;;;;;;;652.10;145.48;;;10.80;55.50;;;;;;5495870;25;20020;-68
2024/04/18 19:18:32;;;;;;;489.75;92.35;;;10.80;55.70;;;;;;5506767;25;20005;-67
2024/04/18 19:21:06;;;;;;;491.80;81.65;;;10.80;55.70;;;;;;5502967;25;20634;-69
2024/04/18 19:23:35;;;;;;;539.20;100.07;;;10.70;55.80;;;;;;5490747;25;20016;-67
2024/04/18 19:26:08;;;;;;;577.60;119.85;;;10.60;56.00;;;;;;5489530;25;20001;-66
2024/04/18 19:28:41;;;;;;;506.48;86.38;;;10.60;56.20;;;;;;5494320;25;20749;-70
2024/04/18 19:31:13;;;;;;;495.27;83.25;;;10.60;56.30;;;;;;5492834;25;20482;-66
2024/04/18 19:33:41;;;;;;;491.92;89.82;;;10.60;56.40;;;;;;5508191;25;20011;-67
2024/04/18 19:36:14;;;;;;;472.65;85.82;;;10.60;56.40;;;;;;5500403;25;20012;-66
2024/04/18 19:38:44;;;;;;;521.10;92.30;;;10.60;56.50;;;;;;5517804;25;20004;-68
2024/04/18 19:41:28;;;;;;;488.83;81.72;;;10.50;56.50;;;;;;5506707;25;20008;-68
2024/04/18 19:44:01;;;;;;;633.90;135.65;;;10.40;56.50;;;;;;5516958;25;20017;-66
2024/04/18 19:46:35;;;;;;;471.88;77.90;;;10.40;56.60;;;;;;5514357;25;20005;-67
2024/04/18 19:49:09;;;;;;;547.65;101.45;;;10.30;56.60;;;;;;5504835;25;20028;-68
2024/04/18 19:52:02;;;;;;;542.80;104.85;;;10.20;56.80;;;;;;5502444;25;20009;-64
2024/04/18 19:54:35;;;;;;;494.52;88.22;;;10.20;57.00;;;;;;5491505;25;20008;-67
2024/04/18 19:57:08;;;;;;;513.55;91.65;;;10.20;57.10;;;;;;5486820;25;20020;-64
2024/04/18 19:59:40;;;;;;;483.52;85.35;;;10.30;57.10;;;;;;5491144;25;20006;-65
2024/04/18 20:02:12;;;;;;;674.50;160.13;;;10.30;57.10;;;;;;5490723;25;20005;-64
2024/04/18 20:04:42;;;;;;;486.40;81.30;;;10.40;57.10;;;;;;5492533;25;20020;-66
2024/04/18 20:07:15;;;;;;;473.05;78.55;;;10.50;57.10;;;;;;5530907;25;20016;-68
2024/04/18 20:09:44;;;;;;;478.75;79.53;;;10.50;57.00;;;;;;5494461;25;20016;-69
2024/04/18 20:12:18;;;;;;;627.47;133.13;;;10.50;56.90;;;;;;5462376;25;20784;-65
2024/04/18 20:15:10;;;;;;;468.83;77.28;;;10.50;56.80;;;;;;5489347;25;20018;-65
2024/04/18 20:17:43;;;;;;;553.15;104.05;;;10.40;56.80;;;;;;5481369;25;20077;-68
2024/04/18 20:20:18;;;;;;;670.50;143.40;;;10.30;57.50;;;;;;5478753;25;20040;-72
2024/04/18 20:23:00;;;;;;;456.05;73.05;;;10.20;56.80;;;;;;5491972;25;20895;-72
2024/04/18 20:25:30;;;;;;;475.67;79.32;;;10.20;56.90;;;;;;5490341;25;20019;-72
2024/04/18 20:28:04;;;;;;;483.73;79.53;;;10.20;57.10;;;;;;5494175;25;19997;-68
2024/04/18 20:30:38;;;;;;;468.83;75.87;;;10.30;57.10;;;;;;5486429;25;19993;-64
2024/04/18 20:33:09;;;;;;;496.38;82.35;;;10.40;57.00;;;;;;5492885;25;19993;-68
2024/04/18 20:35:38;;;;;;;466.83;75.50;;;10.40;57.00;;;;;;5489850;25;21674;-68
2024/04/18 20:38:10;;;;;;;544.20;98.32;;;10.40;56.90;;;;;;5491841;25;20408;-68
2024/04/18 20:40:39;;;;;;;491.42;89.75;;;10.40;56.90;;;;;;5510703;25;20005;-69
2024/04/18 20:43:10;;;;;;;486.88;80.80;;;10.50;56.90;;;;;;5490817;25;20001;-73
2024/04/18 20:45:42;;;;;;;449.05;71.22;;;10.50;56.70;;;;;;5493153;25;20018;-70
2024/04/18 20:48:13;;;;;;;503.08;85.13;;;10.50;56.70;;;;;;5488949;25;20973;-69
2024/04/18 20:50:42;;;;;;;626.35;124.93;;;10.60;56.80;;;;;;5480485;25;20070;-70
2024/04/18 20:53:13;;;;;;;495.42;82.40;;;10.60;56.60;;;;;;5493535;25;20005;-75
2024/04/18 20:55:41;;;;;;;527.95;92.15;;;10.60;56.50;;;;;;5490871;25;20001;-72
2024/04/18 20:58:12;;;;;;;462.27;74.53;;;10.60;56.50;;;;;;5485815;25;21233;-67
2024/04/18 21:00:49;;;;;;;635.47;135.73;;;10.60;56.50;;;;;;5480789;25;20002;-70
2024/04/18 21:03:17;;;;;;;498.63;82.80;;;10.60;56.50;;;;;;5488607;25;20010;-67
2024/04/18 21:05:48;;;;;;;466.95;76.47;;;10.60;56.50;;;;;;5491024;25;20601;-69
2024/04/18 21:08:16;;;;;;;532.45;94.15;;;10.70;56.50;;;;;;5483140;25;20468;-68
2024/04/18 21:10:47;;;;;;;482.10;80.35;;;10.70;56.50;;;;;;5488647;25;21906;-65
2024/04/18 21:13:15;;;;;;;491.33;91.05;;;10.80;56.50;;;;;;5488070;25;19997;-67
2024/04/18 21:15:58;;;;;;;478.60;78.43;;;10.90;56.50;;;;;;5488195;25;20016;-66
2024/04/18 21:18:27;;;;;;;466.58;77.10;;;10.90;56.40;;;;;;5483108;25;20570;-65
2024/04/18 21:20:58;;;;;;;476.33;78.80;;;11.00;56.30;;;;;;5484502;25;20020;-65
2024/04/18 21:23:27;;;;;;;489.40;90.47;;;11.00;56.20;;;;;;5484568;25;21217;-65
2024/04/18 21:25:57;;;;;;;491.73;81.18;;;11.10;56.10;;;;;;5487525;25;20077;-67
2024/04/18 21:28:25;;;;;;;471.77;77.22;;;11.10;56.00;;;;;;5496423;25;20008;-70
2024/04/18 21:30:59;;;;;;;491.10;81.97;;;11.10;55.90;;;;;;5502280;25;20073;-68
2024/04/18 21:33:27;;;;;;;677.55;147.68;;;11.00;56.50;;;;;;5481952;25;20430;-70
2024/04/18 21:35:58;;;;;;;502.52;83.78;;;10.90;55.80;;;;;;5511811;25;20009;-71
2024/04/18 21:38:32;;;;;;;490.40;81.32;;;10.90;56.40;;;;;;5512327;25;20479;-71
2024/04/18 21:41:20;;;;;;;481.00;78.82;;;10.90;55.80;;;;;;5500103;25;20001;-71
2024/04/18 21:43:53;;;;;;;589.17;114.57;;;10.80;55.80;;;;;;5498449;25;20008;-71
2024/04/18 21:46:29;;;;;;;478.17;78.45;;;10.60;55.80;;;;;;5505837;25;20500;-71
2024/04/18 21:48:58;;;;;;;462.25;76.07;;;10.60;55.90;;;;;;5486412;25;20512;-73
2024/04/18 21:51:28;;;;;;;469.77;76.47;;;10.50;56.00;;;;;;5520532;25;20016;-70
2024/04/18 21:53:57;;;;;;;486.38;81.00;;;10.50;56.10;;;;;;5499965;25;20017;-73
2024/04/18 21:56:29;;;;;;;466.30;79.15;;;10.40;55.90;;;;;;5494890;25;19997;-69
2024/04/18 21:58:57;;;;;;;475.85;77.40;;;10.40;55.90;;;;;;5516816;25;20001;-69
2024/04/18 22:01:43;;;;;;;491.10;82.05;;;10.30;55.80;;;;;;5498635;25;20070;-70
2024/04/18 22:04:13;;;;;;;516.42;99.50;;;10.20;55.80;;;;;;5489329;25;20121;-68
2024/04/18 22:06:45;;;;;;;485.85;79.63;;;10.10;55.90;;;;;;5489514;25;20009;-69
2024/04/18 22:09:14;;;;;;;481.00;81.18;;;10.10;56.00;;;;;;5492055;25;20005;-72
2024/04/18 22:11:45;;;;;;;475.73;77.82;;;10.00;56.00;;;;;;5486688;25;20925;-70
2024/04/18 22:14:13;;;;;;;513.97;87.18;;;10.00;55.90;;;;;;5491516;25;20001;-70
2024/04/18 22:16:47;;;;;;;568.90;112.85;;;10.00;55.90;;;;;;5477195;25;20834;-68
2024/04/18 22:19:15;;;;;;;467.38;75.53;;;10.00;55.90;;;;;;5489244;25;20053;-69
2024/04/18 22:21:47;;;;;;;453.98;73.28;;;10.00;55.90;;;;;;5469769;25;20927;-70
2024/04/18 22:24:15;;;;;;;495.55;83.05;;;10.00;55.90;;;;;;5470448;25;20016;-70
2024/04/18 22:26:48;;;;;;;452.42;73.03;;;10.00;56.00;;;;;;5488431;25;20010;-68
2024/04/18 22:29:19;;;;;;;481.80;79.20;;;10.00;56.10;;;;;;5489160;25;20043;-70
2024/04/18 22:31:53;;;;;;;547.80;105.53;;;10.10;56.10;;;;;;5490412;25;20021;-69
2024/04/18 22:34:21;;;;;;;479.40;77.88;;;10.10;56.00;;;;;;5484610;25;20012;-67
2024/04/18 22:37:04;;;;;;;477.23;78.13;;;10.20;56.00;;;;;;5477153;25;20000;-67
2024/04/18 22:39:32;;;;;;;544.00;104.30;;;10.30;56.00;;;;;;5487358;25;20238;-68
2024/04/18 22:42:03;;;;;;;457.05;75.20;;;10.30;56.00;;;;;;5491304;25;20506;-69
2024/04/18 22:44:31;;;;;;;452.35;72.43;;;10.30;55.90;;;;;;5479050;25;20953;-66
2024/04/18 22:47:04;;;;;;;439.50;70.43;;;10.40;56.00;;;;;;5470686;25;20010;-67
2024/04/18 22:49:34;;;;;;;572.78;112.30;;;10.40;55.90;;;;;;5486887;25;20020;-68
2024/04/18 22:52:05;;;;;;;466.25;75.75;;;10.50;55.90;;;;;;5503132;25;19997;-68
2024/04/18 22:54:33;;;;;;;471.02;78.07;;;10.50;55.90;;;;;;5489854;25;20121;-68
2024/04/18 22:57:18;;;;;;;514.15;89.53;;;10.50;55.90;;;;;;5498099;25;20008;-68
2024/04/18 22:59:48;;;;;;;480.67;79.13;;;10.50;55.90;;;;;;5491780;25;20002;-69
2024/04/18 23:02:21;;;;;;;611.55;126.03;;;10.50;55.90;;;;;;5477870;25;20049;-67
2024/04/18 23:04:49;;;;;;;464.20;75.55;;;10.40;55.90;;;;;;5500209;25;20005;-68
2024/04/18 23:07:20;;;;;;;449.52;72.15;;;10.40;55.90;;;;;;5497974;25;20009;-67
2024/04/18 23:09:48;;;;;;;496.50;85.72;;;10.40;55.90;;;;;;5471971;25;20002;-69
2024/04/18 23:12:19;;;;;;;464.73;75.22;;;10.40;56.00;;;;;;5462414;26;20352;-69
2024/04/18 23:14:47;;;;;;;441.90;72.78;;;10.40;56.10;;;;;;5463256;26;20464;-69
2024/04/18 23:17:21;;;;;;;547.15;101.70;;;10.50;56.00;;;;;;5448250;26;19998;-68
2024/04/18 23:19:49;;;;;;;432.60;68.13;;;10.50;55.90;;;;;;5478013;25;20990;-70
2024/04/18 23:22:20;;;;;;;453.90;73.22;;;10.50;55.90;;;;;;5485031;25;20076;-66
2024/04/18 23:24:48;;;;;;;567.22;111.80;;;10.40;55.80;;;;;;5445245;25;19999;-68
2024/04/18 23:27:18;;;;;;;436.40;69.47;;;10.40;55.90;;;;;;5459441;26;20050;-68
2024/04/18 23:29:46;;;;;;;447.27;72.30;;;10.30;55.80;;;;;;5467127;26;20070;-68
2024/04/18 23:32:17;;;;;;;450.85;72.93;;;10.30;55.80;;;;;;5463737;25;20006;-69
2024/04/18 23:34:48;;;;;;;491.13;84.72;;;10.30;55.90;;;;;;5461456;26;20038;-69
2024/04/18 23:37:19;;;;;;;616.88;136.43;;;10.30;55.90;;;;;;5449505;25;20002;-69
2024/04/18 23:39:50;;;;;;;503.05;86.80;;;10.40;56.00;;;;;;5463044;26;20003;-69
2024/04/18 23:42:18;;;;;;;441.23;70.45;;;10.30;55.90;;;;;;5459141;26;20003;-68
2024/04/18 23:44:49;;;;;;;440.08;70.50;;;10.40;55.90;;;;;;5454145;26;20020;-69
2024/04/18 23:47:17;;;;;;;460.38;75.97;;;10.40;55.90;;;;;;5458562;26;20005;-67
2024/04/18 23:49:51;;;;;;;460.80;87.22;;;10.50;55.90;;;;;;5455793;26;20002;-69
2024/04/18 23:52:19;;;;;;;453.70;74.15;;;10.50;55.80;;;;;;5452255;26;20006;-68
2024/04/18 23:54:51;;;;;;;454.40;73.00;;;10.50;55.70;;;;;;5466113;26;20034;-67
2024/04/18 23:57:19;;;;;;;456.08;73.97;;;10.50;55.70;;;;;;5445329;26;20012;-70
2024/04/18 23:59:50;;;;;;;636.33;142.68;;;10.50;55.70;;;;;;5455454;26;19999;-68
